Westfield, ME (04787)

5:16 AM EST on February 13, 2016 (GMT -0500)
Northern Maine Regional At Presque Isle | | Change Station
CLOSE
Current Station
Airport
Location: Presque Isle,
Elevation: 479 ft
Nearby Weather Stations
Active Advisory: Wind Chill Advisory Active Notice: Local Storm Report

Elev 479 ft 46.69 °N, 68.04 °W | Updated 20 minutes ago

Clear
Clear
-23 °F
Feels Like -23 °F
N
0
Wind Variable Wind from North

Today
High -- | Low -- °F
--% Chance of Precip.
Yesterday
High -- | Low -- °F
Precip. -- in
Pressure 29.99 in
Visibility 10.0 miles
Clouds Clear
Dew Point -28 °F
Humidity 78%
Rainfall 0.00 in
Snow Depth Not available.
6:39 AM 4:53 PM
Waxing Crescent, 29% visible
METAR KPQI 130956Z AUTO 00000KT 10SM CLR M31/M33 A2984 RMK AO2 SLP156 T13061333 FZRANO
Pressure 29.99 in
Visibility 10.0 miles
Clouds Clear
Dew Point -28 °F
Humidity 78%
Rainfall 0.00 in
Snow Depth Not available.
6:39 AM 4:53 PM
Waxing Crescent, 29% visible
METAR KPQI 130956Z AUTO 00000KT 10SM CLR M31/M33 A2984 RMK AO2 SLP156 T13061333 FZRANO

10-Day Weather Forecast

Almanac

Astronomy

Feb. 13, 2016 Rise Set
Actual Time
Civil Twilight
Nautical Twilight
Astronomical Twilight
Moon
Length of Visible Light
Length of Day
Tomorrow will be .
, % of the Moon is Illuminated

Today's Extremes

State Highs State Lows

Community

WunderPhotos

Upload Photos

1,892,536 photos uploaded!

WunderBlog® & News

Nearby

Air Quality

  Air Quality AQ Index Pollutant
Not available.

Snow Depth

Station Depth Elevation

Earthquake Activity

City Distance Mag. Time & Date
Minimum magnitude displayed is 2.5.

Coastal Water Temperatures

Place Temperature

Stations

Nearby Weather Stations

Station Location Temp. Windchill Dew Point Humidity Wind Precip. Elev Updated Type
                   

Watches & Warnings

Wind Chill Advisory
Issued: 3:37 AM EST Feb. 13, 2016 – National Weather Service

... Wind Chill Advisory remains in effect from 2 am to 10 am EST
Sunday...

* locations... northeast and southern Aroostook County... Penobscot
County... southern Piscataquis County and interior Washington
County.

* Hazard types... bitterly cold wind chills.

* Wind chill readings... as low as 29 below.

* Timing... late Saturday night into Sunday morning.

* Impacts... frostbite and hypothermia are possible if not
dressed appropriately while outdoors.

* Winds... northwest 10 to 15 mph with gusts up to 30 mph.

* Temperatures... 11 below to 2 above zero.

Precautionary/preparedness actions...

A Wind Chill Advisory means that very cold air and strong winds
will combine to generate low wind chills. This will result in
frost bite and lead to hypothermia if precautions are not taken.
If you must venture outdoors... make sure you wear a hat and
gloves.